Time;durP1;ratioP1;P1;durP2;ratioP2;P2;SDS_P1;SDS_P2;PMS_P1;PMS_P2;Temp;Humidity;BMP_temperature;BMP_pressure;BME280_temperature;BME280_humidity;BME280_pressure;Samples;Min_cycle;Max_cycle;Signal;HPM_P1;HPM_P2
2021/03/04 00:01:28;;;;;;;77.43;48.30;;;8.20;99.90;;;;;;5023409;28;20271;-82
2021/03/04 00:03:54;;;;;;;80.00;48.88;;;8.20;99.90;;;;;;5019185;28;20223;-81
2021/03/04 00:06:20;;;;;;;78.50;50.50;;;8.20;99.90;;;;;;5019541;28;20227;-81
2021/03/04 00:08:47;;;;;;;83.10;49.63;;;8.20;99.90;;;;;;5018945;28;20201;-83
2021/03/04 00:11:13;;;;;;;75.13;48.60;;;8.10;99.90;;;;;;5018429;28;20467;-81
2021/03/04 00:13:39;;;;;;;79.03;50.00;;;8.00;99.90;;;;;;5018655;28;20494;-83
2021/03/04 00:16:06;;;;;;;78.90;50.88;;;8.00;99.90;;;;;;5018348;28;20667;-83
2021/03/04 00:18:32;;;;;;;85.68;51.88;;;8.00;99.90;;;;;;5018486;28;20267;-82
2021/03/04 00:20:58;;;;;;;91.67;52.83;;;8.20;99.90;;;;;;5018408;28;20247;-82
2021/03/04 00:23:24;;;;;;;86.70;53.30;;;7.90;99.90;;;;;;5018847;28;20471;-82
2021/03/04 00:25:51;;;;;;;96.95;56.25;;;7.80;99.90;;;;;;5018338;28;20497;-81
2021/03/04 00:28:17;;;;;;;87.18;52.95;;;7.90;99.90;;;;;;5018714;28;20315;-81
2021/03/04 00:30:43;;;;;;;99.85;54.10;;;7.90;99.90;;;;;;5018557;28;20227;-82
2021/03/04 00:33:09;;;;;;;93.95;55.47;;;7.80;99.90;;;;;;5018225;28;20211;-82
2021/03/04 00:35:35;;;;;;;94.07;54.72;;;7.70;99.90;;;;;;5018730;28;20200;-82
2021/03/04 00:38:01;;;;;;;94.35;52.28;;;7.60;99.90;;;;;;5021800;28;20212;-81
2021/03/04 00:40:27;;;;;;;88.43;56.50;;;7.50;99.90;;;;;;5034930;28;20207;-80
2021/03/04 00:42:54;;;;;;;91.40;52.92;;;7.50;99.90;;;;;;5034510;28;20211;-82
2021/03/04 00:45:22;;;;;;;91.72;54.33;;;7.50;99.90;;;;;;5032914;28;20210;-81
2021/03/04 00:47:48;;;;;;;87.43;53.55;;;7.50;99.90;;;;;;5032875;28;20205;-80
2021/03/04 00:50:17;;;;;;;90.70;54.08;;;7.40;99.90;;;;;;5022566;28;20225;-80
2021/03/04 00:52:43;;;;;;;92.43;53.85;;;7.40;99.90;;;;;;5021285;28;20211;-82
2021/03/04 00:55:10;;;;;;;92.82;52.35;;;7.30;99.90;;;;;;5020432;28;20212;-81
2021/03/04 00:57:36;;;;;;;90.93;49.60;;;7.30;99.90;;;;;;5019310;28;20223;-80
2021/03/04 01:00:04;;;;;;;83.18;53.28;;;7.30;99.90;;;;;;5018771;28;20641;-81
2021/03/04 01:02:30;;;;;;;98.40;53.90;;;7.20;99.90;;;;;;5018810;28;20193;-82
2021/03/04 01:04:56;;;;;;;84.70;47.97;;;7.20;99.90;;;;;;5018401;28;20200;-82
2021/03/04 01:07:22;;;;;;;90.63;50.13;;;7.10;99.90;;;;;;5019461;28;20262;-81
2021/03/04 01:09:49;;;;;;;82.20;48.40;;;6.90;99.90;;;;;;5022550;28;20204;-80
2021/03/04 01:12:15;;;;;;;84.32;48.55;;;7.10;99.90;;;;;;5025131;28;20205;-82
2021/03/04 01:14:41;;;;;;;88.00;53.20;;;6.90;99.90;;;;;;5021901;28;20223;-82
2021/03/04 01:17:10;;;;;;;90.05;49.45;;;7.00;99.90;;;;;;5023039;28;20236;-82
2021/03/04 01:19:36;;;;;;;91.07;52.60;;;7.00;99.90;;;;;;5023471;28;20224;-81
2021/03/04 01:22:03;;;;;;;90.55;49.00;;;6.90;99.90;;;;;;5023100;28;20224;-81
2021/03/04 01:24:29;;;;;;;81.97;50.53;;;6.90;99.90;;;;;;5022618;28;20204;-82
2021/03/04 01:26:55;;;;;;;87.47;49.45;;;7.00;99.90;;;;;;5020535;28;20243;-82
2021/03/04 01:29:21;;;;;;;92.43;51.90;;;6.80;99.90;;;;;;5019144;28;20266;-82
2021/03/04 01:31:47;;;;;;;82.90;50.22;;;6.80;99.90;;;;;;5020582;28;20572;-81
2021/03/04 01:34:14;;;;;;;87.30;50.55;;;6.70;99.90;;;;;;5020658;28;20231;-79
2021/03/04 01:36:40;;;;;;;82.13;51.88;;;6.70;99.90;;;;;;5020403;28;20204;-83
2021/03/04 01:39:07;;;;;;;104.65;56.78;;;6.70;99.90;;;;;;5022129;28;20220;-82
2021/03/04 01:41:33;;;;;;;90.15;53.92;;;6.60;99.90;;;;;;5022196;28;20229;-82
2021/03/04 01:43:59;;;;;;;100.18;55.05;;;6.60;99.90;;;;;;5022028;28;20201;-82
2021/03/04 01:46:26;;;;;;;94.80;54.15;;;6.50;99.90;;;;;;5021601;28;20208;-82
2021/03/04 01:48:53;;;;;;;91.35;55.85;;;6.50;99.90;;;;;;5022236;28;20208;-82
2021/03/04 01:51:20;;;;;;;101.00;56.95;;;6.50;99.90;;;;;;5026321;28;20219;-82
2021/03/04 01:53:46;;;;;;;107.22;59.20;;;6.50;99.90;;;;;;5024493;28;20199;-80
2021/03/04 01:56:12;;;;;;;108.72;58.92;;;6.30;99.90;;;;;;5018675;28;20208;-81
2021/03/04 01:58:39;;;;;;;104.50;60.30;;;6.50;99.90;;;;;;5018263;28;20220;-81
2021/03/04 02:01:05;;;;;;;102.70;58.95;;;6.50;99.90;;;;;;5017779;28;20294;-81
2021/03/04 02:03:33;;;;;;;106.13;58.00;;;6.40;99.90;;;;;;5020138;28;20215;-80
2021/03/04 02:06:00;;;;;;;112.53;61.42;;;6.40;99.90;;;;;;5017744;28;20212;-82
2021/03/04 02:08:32;;;;;;;96.25;58.45;;;6.40;99.90;;;;;;5016582;28;20204;-80
2021/03/04 02:11:01;;;;;;;113.93;63.05;;;6.50;99.90;;;;;;5017810;28;20302;-80
2021/03/04 02:13:32;;;;;;;102.00;60.65;;;6.80;99.90;;;;;;5018692;28;20286;-82
2021/03/04 02:16:03;;;;;;;112.03;60.33;;;6.50;99.90;;;;;;5018940;28;20600;-81
2021/03/04 02:18:32;;;;;;;104.57;63.30;;;6.50;99.90;;;;;;5020464;28;20212;-80
2021/03/04 02:21:12;;;;;;;115.03;62.55;;;6.50;99.90;;;;;;5024241;28;20226;-80
2021/03/04 02:24:01;;;;;;;115.18;65.40;;;6.40;99.90;;;;;;5023891;28;20192;-79
2021/03/04 02:26:38;;;;;;;122.00;62.88;;;6.40;99.90;;;;;;5023805;28;20223;-82
2021/03/04 02:29:07;;;;;;;108.35;63.33;;;6.40;99.90;;;;;;5025042;28;20222;-79
2021/03/04 02:31:36;;;;;;;105.90;63.90;;;6.40;99.90;;;;;;5026546;28;20224;-81
2021/03/04 02:34:05;;;;;;;116.32;67.25;;;6.30;99.90;;;;;;5028155;28;20200;-81
2021/03/04 02:36:34;;;;;;;106.40;62.10;;;6.20;99.90;;;;;;5024612;28;20235;-79
2021/03/04 02:39:02;;;;;;;120.40;68.10;;;6.20;99.90;;;;;;5021883;28;20271;-79
2021/03/04 02:41:28;;;;;;;116.60;68.70;;;5.70;99.90;;;;;;5022077;28;20232;-81
2021/03/04 02:43:55;;;;;;;111.32;65.00;;;6.00;99.90;;;;;;5021424;28;20211;-82
2021/03/04 02:46:22;;;;;;;120.25;69.13;;;6.00;99.90;;;;;;5021249;28;20203;-82
2021/03/04 02:48:48;;;;;;;125.30;71.32;;;6.00;99.90;;;;;;5026691;28;20207;-82
2021/03/04 02:51:14;;;;;;;123.85;66.78;;;5.90;99.90;;;;;;5024387;28;20259;-82
2021/03/04 02:53:42;;;;;;;118.00;67.22;;;6.10;99.90;;;;;;5021314;28;20553;-81
2021/03/04 02:56:09;;;;;;;129.10;70.72;;;6.00;99.90;;;;;;5029684;28;20204;-82
2021/03/04 02:58:37;;;;;;;113.43;66.30;;;6.00;99.90;;;;;;5035604;28;20227;-81
2021/03/04 03:01:03;;;;;;;125.57;71.03;;;6.00;99.90;;;;;;5036550;28;20248;-78
2021/03/04 03:03:31;;;;;;;130.82;71.97;;;6.10;99.90;;;;;;5033653;28;20211;-80
2021/03/04 03:06:02;;;;;;;126.95;67.22;;;6.20;99.90;;;;;;5033775;28;20207;-80
2021/03/04 03:08:29;;;;;;;130.18;71.35;;;6.30;99.90;;;;;;5034288;28;20192;-79
2021/03/04 03:10:55;;;;;;;129.10;68.32;;;6.30;99.90;;;;;;5035095;28;20216;-79
2021/03/04 03:13:21;;;;;;;137.20;73.15;;;6.30;99.90;;;;;;5030967;28;20205;-81
2021/03/04 03:15:50;;;;;;;117.50;63.53;;;6.30;99.90;;;;;;5025811;28;20205;-82
2021/03/04 03:18:16;;;;;;;124.30;69.63;;;6.30;99.90;;;;;;5022992;28;20690;-82
2021/03/04 03:20:44;;;;;;;120.90;69.75;;;6.30;99.90;;;;;;5023943;28;20232;-81
2021/03/04 03:23:10;;;;;;;124.35;70.13;;;6.30;99.90;;;;;;5021127;28;20204;-81
2021/03/04 03:25:36;;;;;;;122.78;71.22;;;6.40;99.90;;;;;;5021703;28;20200;-80
2021/03/04 03:28:04;;;;;;;108.30;63.78;;;6.20;99.90;;;;;;5020166;28;20215;-81
2021/03/04 03:30:31;;;;;;;128.68;71.47;;;6.10;99.90;;;;;;5021706;28;20248;-82
2021/03/04 03:32:58;;;;;;;117.97;69.30;;;6.10;99.90;;;;;;5021775;28;20208;-82
2021/03/04 03:35:26;;;;;;;128.00;69.22;;;6.10;99.90;;;;;;5020020;28;20192;-80
2021/03/04 03:37:54;;;;;;;128.45;69.38;;;6.00;99.90;;;;;;5019886;28;20244;-81
2021/03/04 03:40:21;;;;;;;133.98;68.40;;;6.10;99.90;;;;;;5020838;28;20228;-81
2021/03/04 03:42:47;;;;;;;125.68;67.40;;;6.10;99.90;;;;;;5021346;28;20208;-80
2021/03/04 03:45:18;;;;;;;123.40;65.35;;;5.90;99.90;;;;;;5019446;28;20308;-79
2021/03/04 03:47:46;;;;;;;126.80;67.05;;;5.70;99.90;;;;;;5020459;28;20188;-82
2021/03/04 03:50:15;;;;;;;124.75;66.78;;;5.80;99.90;;;;;;5026204;28;20251;-80
2021/03/04 03:52:43;;;;;;;114.50;68.13;;;5.80;99.90;;;;;;5033877;28;20212;-80
2021/03/04 03:55:11;;;;;;;123.95;67.05;;;5.80;99.90;;;;;;5029319;28;20557;-81
2021/03/04 03:57:38;;;;;;;115.15;68.10;;;5.60;99.90;;;;;;5030299;28;20209;-82
2021/03/04 04:00:06;;;;;;;107.25;60.17;;;5.70;99.90;;;;;;5028587;28;20244;-78
2021/03/04 04:02:33;;;;;;;108.38;61.40;;;5.80;99.90;;;;;;5057409;22;20239;-80
2021/03/04 04:05:00;;;;;;;105.75;59.40;;;5.60;99.90;;;;;;5022763;28;20204;-79
2021/03/04 04:07:28;;;;;;;117.88;61.15;;;5.60;99.90;;;;;;5024238;28;20255;-79
2021/03/04 04:09:55;;;;;;;122.45;65.38;;;5.70;99.90;;;;;;5022794;28;20338;-80
2021/03/04 04:12:22;;;;;;;122.68;66.28;;;5.60;99.90;;;;;;5022766;28;20239;-80
2021/03/04 04:14:49;;;;;;;122.85;62.47;;;5.60;99.90;;;;;;5020538;28;20212;-81
2021/03/04 04:17:15;;;;;;;119.60;65.10;;;5.60;99.90;;;;;;5020542;28;20259;-81
2021/03/04 04:19:42;;;;;;;109.25;60.90;;;5.60;99.90;;;;;;5026358;28;20255;-81
2021/03/04 04:22:08;;;;;;;108.60;59.45;;;5.70;99.90;;;;;;5029033;28;20225;-80
2021/03/04 04:24:34;;;;;;;109.80;58.60;;;5.70;99.90;;;;;;5021220;28;20262;-81
2021/03/04 04:27:00;;;;;;;114.18;58.53;;;5.70;99.90;;;;;;5019839;28;20223;-77
2021/03/04 04:29:27;;;;;;;107.28;57.78;;;5.30;99.90;;;;;;5026761;28;20201;-81
2021/03/04 04:31:53;;;;;;;113.82;58.83;;;5.70;99.90;;;;;;5027580;28;20228;-80
2021/03/04 04:34:20;;;;;;;126.93;62.28;;;5.50;99.90;;;;;;5031247;28;20230;-79
2021/03/04 04:36:46;;;;;;;93.72;49.08;;;5.20;99.90;;;;;;5036990;28;20212;-78
2021/03/04 04:39:12;;;;;;;101.45;55.50;;;5.30;99.90;;;;;;5034621;28;20227;-79
2021/03/04 04:41:38;;;;;;;90.30;48.65;;;5.10;99.90;;;;;;5032774;28;20235;-80
2021/03/04 04:44:05;;;;;;;93.45;47.72;;;5.00;99.90;;;;;;5032723;28;20208;-79
2021/03/04 04:46:31;;;;;;;88.28;49.28;;;4.90;99.90;;;;;;5034500;28;20209;-80
2021/03/04 04:48:58;;;;;;;109.38;54.72;;;4.90;99.90;;;;;;5033807;28;20201;-79
2021/03/04 04:51:25;;;;;;;93.32;51.95;;;4.90;99.90;;;;;;5025977;28;20232;-80
2021/03/04 04:53:51;;;;;;;87.63;48.25;;;5.00;99.90;;;;;;5022030;28;20208;-80
2021/03/04 04:56:17;;;;;;;96.03;49.30;;;5.00;99.90;;;;;;5020320;28;20204;-80
2021/03/04 04:58:46;;;;;;;102.00;47.00;;;5.00;99.90;;;;;;5020897;28;20220;-80
2021/03/04 05:01:12;;;;;;;92.50;47.28;;;5.10;99.90;;;;;;5018714;28;20375;-80
2021/03/04 05:03:38;;;;;;;102.45;48.15;;;5.00;99.90;;;;;;5018994;28;20208;-80
2021/03/04 05:06:05;;;;;;;91.57;47.88;;;4.90;99.90;;;;;;5019489;28;20212;-79
2021/03/04 05:08:31;;;;;;;94.95;47.28;;;5.00;99.90;;;;;;5018143;28;20208;-80
2021/03/04 05:10:57;;;;;;;91.15;47.10;;;5.00;99.90;;;;;;5018073;28;20719;-79
2021/03/04 05:13:23;;;;;;;95.82;46.17;;;5.00;99.90;;;;;;5017711;28;20563;-79
2021/03/04 05:15:49;;;;;;;86.63;44.58;;;5.00;99.90;;;;;;5018338;28;20663;-79
2021/03/04 05:18:15;;;;;;;108.07;53.88;;;4.90;99.90;;;;;;5016587;28;20438;-80
2021/03/04 05:20:42;;;;;;;99.05;48.30;;;4.70;99.90;;;;;;5018160;28;20262;-79
2021/03/04 05:23:08;;;;;;;96.15;46.50;;;4.80;99.90;;;;;;5017664;28;20282;-79
2021/03/04 05:25:34;;;;;;;96.97;47.85;;;4.80;99.90;;;;;;5017868;28;20211;-81
2021/03/04 05:28:00;;;;;;;96.47;47.95;;;4.80;99.90;;;;;;5016975;28;20212;-79
2021/03/04 05:30:27;;;;;;;90.00;43.42;;;5.00;99.90;;;;;;5017488;28;20215;-79
2021/03/04 05:32:53;;;;;;;92.75;46.45;;;4.80;99.90;;;;;;5017549;28;20207;-80
2021/03/04 05:35:19;;;;;;;98.80;47.33;;;4.80;99.90;;;;;;5020590;28;20205;-80
2021/03/04 05:37:46;;;;;;;87.68;43.35;;;4.80;99.90;;;;;;5025401;28;20208;-80
2021/03/04 05:40:13;;;;;;;85.60;40.60;;;4.50;99.90;;;;;;5034380;28;20235;-80
2021/03/04 05:42:42;;;;;;;95.35;43.30;;;4.80;99.90;;;;;;5025839;28;20231;-81
2021/03/04 05:45:12;;;;;;;89.07;39.10;;;4.90;99.90;;;;;;5027970;28;20211;-79
2021/03/04 05:47:41;;;;;;;92.00;42.55;;;4.70;99.90;;;;;;5023998;28;20555;-81
2021/03/04 05:50:11;;;;;;;88.28;41.35;;;4.80;99.90;;;;;;5028126;28;20197;-81
2021/03/04 05:52:39;;;;;;;85.43;43.58;;;4.70;99.90;;;;;;5025724;28;20236;-83
2021/03/04 05:55:07;;;;;;;93.03;42.63;;;4.70;99.90;;;;;;5032950;28;20239;-82
2021/03/04 05:57:34;;;;;;;91.47;44.10;;;4.50;99.90;;;;;;5035348;28;20263;-80
2021/03/04 06:00:01;;;;;;;91.82;43.97;;;4.60;99.90;;;;;;5034071;28;20220;-83
2021/03/04 06:02:28;;;;;;;73.00;34.63;;;4.40;99.90;;;;;;5032402;28;20742;-81
2021/03/04 06:04:54;;;;;;;76.40;36.63;;;4.40;99.90;;;;;;5035356;28;20208;-79
2021/03/04 06:07:21;;;;;;;50.92;23.45;;;4.30;99.90;;;;;;5034451;28;20231;-81
2021/03/04 06:09:47;;;;;;;62.85;31.30;;;4.30;99.90;;;;;;5034336;28;20212;-80
2021/03/04 06:12:14;;;;;;;81.75;34.78;;;4.20;99.90;;;;;;5034325;28;20231;-81
2021/03/04 06:14:40;;;;;;;81.82;36.42;;;4.20;99.90;;;;;;5035965;28;20235;-79
2021/03/04 06:17:14;;;;;;;83.03;38.08;;;4.30;99.90;;;;;;5036886;28;20200;-81
2021/03/04 06:19:40;;;;;;;84.43;38.22;;;4.10;99.90;;;;;;5032195;28;20228;-80
2021/03/04 06:22:06;;;;;;;73.65;37.47;;;4.20;99.90;;;;;;5029922;28;20228;-82
2021/03/04 06:24:33;;;;;;;81.40;38.65;;;4.20;99.90;;;;;;5036335;28;20207;-79
2021/03/04 06:26:59;;;;;;;82.15;35.38;;;4.20;99.90;;;;;;5034113;28;20207;-79
2021/03/04 06:29:27;;;;;;;93.20;40.15;;;4.30;99.90;;;;;;5034954;28;20200;-80
2021/03/04 06:32:02;;;;;;;84.75;41.45;;;4.40;99.90;;;;;;5035084;28;20251;-79
2021/03/04 06:34:28;;;;;;;89.45;39.30;;;4.40;99.90;;;;;;5034677;28;20263;-78
2021/03/04 06:36:57;;;;;;;85.00;39.10;;;4.40;99.90;;;;;;5035065;28;20192;-80
2021/03/04 06:39:23;;;;;;;89.25;39.72;;;4.40;99.90;;;;;;5028859;28;20282;-79
2021/03/04 06:42:00;;;;;;;84.55;41.08;;;4.40;99.90;;;;;;5031955;28;20239;-79
2021/03/04 06:44:27;;;;;;;83.45;41.08;;;4.60;99.90;;;;;;5032745;28;20219;-79
2021/03/04 06:46:53;;;;;;;79.32;37.55;;;4.60;99.90;;;;;;5033837;28;20205;-79
2021/03/04 06:49:19;;;;;;;84.22;38.38;;;4.70;99.90;;;;;;5019813;28;20200;-79
2021/03/04 06:51:46;;;;;;;83.13;40.58;;;4.40;99.90;;;;;;5017478;28;20232;-79
2021/03/04 06:54:22;;;;;;;92.15;39.42;;;4.40;99.90;;;;;;5020853;28;20237;-78
2021/03/04 06:56:48;;;;;;;92.20;44.20;;;3.90;99.90;;;;;;5040445;28;20177;-79
2021/03/04 06:59:14;;;;;;;86.60;39.10;;;4.30;99.90;;;;;;5038763;28;20232;-81
2021/03/04 07:01:41;;;;;;;103.68;44.33;;;4.30;99.90;;;;;;5036966;28;20216;-78
2021/03/04 07:04:13;;;;;;;98.70;44.00;;;4.50;99.90;;;;;;5033814;28;20227;-80
2021/03/04 07:06:40;;;;;;;98.65;42.33;;;4.50;99.90;;;;;;5029829;28;20184;-79
2021/03/04 07:09:07;;;;;;;88.85;42.40;;;4.50;99.90;;;;;;5021887;28;20248;-79
2021/03/04 07:11:35;;;;;;;85.03;39.10;;;4.40;99.90;;;;;;5020657;28;20278;-81
2021/03/04 07:14:02;;;;;;;73.20;34.20;;;4.50;99.90;;;;;;5020894;28;20211;-79
2021/03/04 07:16:33;;;;;;;72.60;33.03;;;4.60;99.90;;;;;;5021929;28;20207;-79
2021/03/04 07:19:01;;;;;;;75.72;36.85;;;4.40;99.90;;;;;;5025195;28;20215;-81
2021/03/04 07:21:29;;;;;;;80.90;37.28;;;4.50;99.90;;;;;;5026512;28;20231;-82
2021/03/04 07:23:55;;;;;;;85.30;42.15;;;4.50;99.90;;;;;;5037449;28;20208;-81
2021/03/04 07:26:21;;;;;;;66.82;29.55;;;4.60;99.90;;;;;;5034334;28;20196;-81
2021/03/04 07:28:50;;;;;;;69.43;35.55;;;4.60;99.90;;;;;;5029447;28;20205;-80
2021/03/04 07:31:16;;;;;;;60.72;30.30;;;4.50;99.90;;;;;;5034601;28;20228;-79
2021/03/04 07:33:45;;;;;;;72.78;34.28;;;4.60;99.90;;;;;;5033464;28;20224;-79
2021/03/04 07:36:14;;;;;;;80.55;38.75;;;4.60;99.90;;;;;;5029307;28;20255;-81
2021/03/04 07:38:40;;;;;;;82.60;35.33;;;4.30;99.90;;;;;;5027640;28;20215;-81
2021/03/04 07:41:09;;;;;;;73.93;38.45;;;4.40;99.90;;;;;;5030446;28;20224;-79
2021/03/04 07:43:49;;;;;;;77.80;37.03;;;4.50;99.90;;;;;;5030254;28;20219;-80
2021/03/04 07:46:29;;;;;;;86.47;37.45;;;4.70;99.90;;;;;;5031416;28;20208;-81
2021/03/04 07:48:56;;;;;;;71.43;35.15;;;4.70;99.90;;;;;;5027476;28;20184;-82
2021/03/04 07:51:23;;;;;;;68.55;35.53;;;4.50;99.90;;;;;;5031295;28;20216;-81
2021/03/04 07:53:51;;;;;;;69.45;34.22;;;4.60;99.90;;;;;;5029737;28;20211;-80
2021/03/04 07:56:25;;;;;;;66.47;33.22;;;4.60;99.90;;;;;;5031855;28;20204;-79
2021/03/04 07:58:52;;;;;;;63.58;31.63;;;4.40;99.90;;;;;;5026222;28;20220;-81
2021/03/04 08:01:18;;;;;;;60.63;29.35;;;4.60;99.90;;;;;;5027680;28;20237;-79
2021/03/04 08:03:46;;;;;;;55.97;28.88;;;4.60;99.90;;;;;;5021754;28;20690;-81
2021/03/04 08:06:12;;;;;;;59.13;29.98;;;4.60;99.90;;;;;;5019874;28;20304;-79
2021/03/04 08:08:44;;;;;;;57.90;29.13;;;4.50;99.90;;;;;;5021587;28;20215;-80
2021/03/04 08:11:10;;;;;;;61.00;29.90;;;4.60;99.90;;;;;;5025651;28;20220;-80
2021/03/04 08:13:38;;;;;;;73.63;30.80;;;4.50;99.90;;;;;;5020653;28;20674;-80
2021/03/04 08:16:13;;;;;;;57.40;29.55;;;4.60;99.90;;;;;;5021542;28;20271;-80
2021/03/04 08:18:40;;;;;;;55.72;31.27;;;4.60;99.90;;;;;;5021087;28;20651;-81
2021/03/04 08:21:07;;;;;;;51.38;27.08;;;4.80;99.90;;;;;;5022588;28;20235;-80
2021/03/04 08:23:42;;;;;;;54.72;27.58;;;4.50;99.90;;;;;;5020424;28;20205;-80
2021/03/04 08:26:18;;;;;;;58.92;28.30;;;4.50;99.90;;;;;;5020625;28;20704;-80
2021/03/04 08:28:44;;;;;;;57.35;24.60;;;4.60;99.90;;;;;;5020057;28;20196;-80
2021/03/04 08:31:11;;;;;;;56.55;30.00;;;4.60;99.90;;;;;;5023476;28;20733;-80
2021/03/04 08:33:37;;;;;;;59.03;29.63;;;4.60;99.90;;;;;;5021949;28;20208;-79
2021/03/04 08:36:04;;;;;;;61.50;28.17;;;4.50;99.90;;;;;;5022651;28;20204;-78
2021/03/04 08:38:38;;;;;;;62.30;28.70;;;4.60;99.90;;;;;;5021651;28;20212;-80
2021/03/04 08:41:06;;;;;;;56.35;29.55;;;4.40;99.90;;;;;;5024372;28;20607;-80
2021/03/04 08:43:32;;;;;;;48.67;25.40;;;4.30;99.90;;;;;;5020562;28;20667;-81
2021/03/04 08:45:59;;;;;;;49.13;24.85;;;4.30;99.90;;;;;;5018416;28;20208;-79
2021/03/04 08:48:26;;;;;;;60.25;26.10;;;4.30;99.90;;;;;;5019299;28;20254;-80
2021/03/04 08:50:54;;;;;;;53.03;21.80;;;4.20;99.90;;;;;;5019962;28;20204;-81
2021/03/04 08:53:25;;;;;;;51.25;26.50;;;4.30;99.90;;;;;;5031124;28;20212;-80
2021/03/04 08:55:53;;;;;;;50.50;25.30;;;4.10;99.90;;;;;;5030285;28;20216;-79
2021/03/04 08:58:21;;;;;;;51.78;23.20;;;4.20;99.90;;;;;;5021647;28;20196;-81
2021/03/04 09:00:52;;;;;;;55.22;26.33;;;4.40;99.90;;;;;;5024432;28;20229;-81
2021/03/04 09:03:19;;;;;;;49.88;27.50;;;4.40;99.90;;;;;;5026702;28;20195;-80
2021/03/04 09:05:48;;;;;;;47.83;22.48;;;4.50;99.90;;;;;;5028939;28;20243;-79
2021/03/04 09:08:16;;;;;;;49.28;21.00;;;4.40;99.90;;;;;;5030380;28;20314;-80
2021/03/04 09:10:44;;;;;;;46.03;24.73;;;4.10;99.90;;;;;;5033137;28;20284;-80
2021/03/04 09:13:10;;;;;;;46.60;25.80;;;4.20;99.90;;;;;;5020525;28;20204;-79
2021/03/04 09:15:43;;;;;;;48.95;23.65;;;4.20;99.90;;;;;;5019465;28;20204;-80
2021/03/04 09:18:09;;;;;;;84.57;26.02;;;4.70;99.90;;;;;;5019145;28;20648;-79
2021/03/04 09:20:36;;;;;;;50.85;25.48;;;4.00;99.90;;;;;;5021041;28;20232;-81
2021/03/04 09:23:04;;;;;;;51.17;24.70;;;4.80;99.90;;;;;;5027962;28;20311;-79
2021/03/04 09:25:31;;;;;;;37.97;22.85;;;4.50;99.90;;;;;;5030349;28;20211;-80
2021/03/04 09:27:57;;;;;;;48.53;22.27;;;4.60;99.90;;;;;;5029138;28;20204;-80
2021/03/04 09:30:26;;;;;;;46.25;23.00;;;4.50;99.90;;;;;;5025646;28;20196;-80
2021/03/04 09:32:53;;;;;;;48.00;22.98;;;4.50;99.90;;;;;;5027110;28;20208;-80
2021/03/04 09:35:19;;;;;;;49.67;22.42;;;4.60;99.90;;;;;;5028613;28;20204;-80
2021/03/04 09:37:46;;;;;;;37.53;20.42;;;4.70;99.90;;;;;;5033585;28;20212;-81
2021/03/04 09:40:26;;;;;;;44.05;21.05;;;4.70;99.90;;;;;;5036119;28;20666;-81
2021/03/04 09:42:53;;;;;;;44.55;22.55;;;4.80;99.90;;;;;;5034140;28;20213;-80
2021/03/04 09:45:19;;;;;;;42.95;23.05;;;4.70;99.90;;;;;;5035119;28;20204;-79
2021/03/04 09:47:49;;;;;;;40.00;22.58;;;4.60;99.90;;;;;;5036563;28;20208;-83
2021/03/04 09:50:22;;;;;;;36.85;20.67;;;4.60;99.90;;;;;;5035263;28;20223;-79
2021/03/04 09:53:01;;;;;;;39.42;23.00;;;4.70;99.90;;;;;;5029387;28;20193;-80
2021/03/04 09:55:33;;;;;;;41.97;20.30;;;4.50;99.90;;;;;;5025184;28;20199;-82
2021/03/04 09:58:12;;;;;;;39.78;22.08;;;4.60;99.90;;;;;;5027005;28;20188;-81
2021/03/04 10:00:39;;;;;;;37.55;20.02;;;5.00;99.90;;;;;;5026509;28;20311;-82
2021/03/04 10:03:11;;;;;;;42.70;21.05;;;4.70;99.90;;;;;;5034926;22;20232;-84
2021/03/04 10:05:50;;;;;;;35.03;20.38;;;4.70;99.90;;;;;;5027923;28;20205;-82
2021/03/04 10:08:17;;;;;;;38.45;18.50;;;4.70;99.90;;;;;;5031900;28;20204;-81
2021/03/04 10:10:45;;;;;;;29.02;18.13;;;4.70;99.90;;;;;;5035404;28;20200;-82
2021/03/04 10:13:11;;;;;;;38.75;19.60;;;4.70;99.90;;;;;;5033383;28;20231;-82
2021/03/04 10:15:40;;;;;;;36.60;19.27;;;4.70;99.90;;;;;;5022771;28;20255;-83
2021/03/04 10:18:07;;;;;;;41.78;19.45;;;4.70;99.90;;;;;;5020911;28;20215;-83
2021/03/04 10:20:34;;;;;;;47.10;20.90;;;4.50;99.90;;;;;;5019570;28;20278;-82
2021/03/04 10:23:01;;;;;;;37.42;20.73;;;4.60;99.90;;;;;;5019536;28;20255;-82
2021/03/04 10:25:27;;;;;;;36.60;19.88;;;4.80;99.90;;;;;;5019164;28;20204;-83
2021/03/04 10:27:55;;;;;;;40.78;20.48;;;4.70;99.90;;;;;;5018831;28;20205;-83
2021/03/04 10:30:21;;;;;;;40.22;21.58;;;4.40;99.90;;;;;;5019329;28;20200;-83
2021/03/04 10:32:47;;;;;;;44.78;24.10;;;4.60;99.90;;;;;;5019086;28;20255;-83
2021/03/04 10:35:15;;;;;;;58.50;23.55;;;4.60;99.90;;;;;;5019300;28;20200;-82
2021/03/04 10:37:43;;;;;;;44.08;23.45;;;4.50;99.90;;;;;;5019132;28;20218;-82
2021/03/04 10:40:12;;;;;;;49.90;24.48;;;4.60;99.90;;;;;;5019304;28;20252;-83
2021/03/04 10:42:39;;;;;;;64.20;27.73;;;4.60;99.90;;;;;;5019389;28;20228;-83
2021/03/04 10:45:07;;;;;;;46.42;20.90;;;4.90;99.90;;;;;;5018728;28;20204;-83
2021/03/04 10:47:33;;;;;;;51.67;27.65;;;4.70;99.90;;;;;;5019053;28;20208;-82
2021/03/04 10:50:01;;;;;;;62.72;24.48;;;4.40;99.90;;;;;;5019407;28;20558;-83
2021/03/04 10:52:27;;;;;;;46.20;24.80;;;4.50;99.90;;;;;;5018939;28;20224;-82
2021/03/04 10:54:53;;;;;;;52.78;25.85;;;4.60;99.90;;;;;;5021297;28;20578;-82
2021/03/04 10:57:20;;;;;;;49.05;24.92;;;4.70;99.90;;;;;;5023422;28;20196;-83
2021/03/04 10:59:47;;;;;;;51.83;25.80;;;;;;;;;;5024660;28;20228;-82
2021/03/04 11:02:13;;;;;;;39.75;21.38;;;4.60;99.90;;;;;;5024807;28;20232;-83
2021/03/04 11:04:39;;;;;;;43.58;24.58;;;4.60;99.90;;;;;;5024442;28;20215;-83
2021/03/04 11:07:06;;;;;;;38.72;21.55;;;4.40;99.90;;;;;;5020614;28;20200;-81
2021/03/04 11:09:32;;;;;;;37.35;22.15;;;4.30;99.90;;;;;;5020445;28;20215;-81
2021/03/04 11:11:58;;;;;;;38.53;21.85;;;4.40;99.90;;;;;;5021305;28;20224;-82
2021/03/04 11:14:25;;;;;;;43.38;19.08;;;4.20;99.90;;;;;;5021096;28;20607;-82
2021/03/04 11:16:52;;;;;;;30.83;17.92;;;;;;;;;;5020424;28;20208;-81
2021/03/04 11:19:18;;;;;;;40.78;20.27;;;;;;;;;;5023636;28;20315;-83
2021/03/04 11:21:46;;;;;;;34.22;18.25;;;;;;;;;;5023067;28;20224;-81
2021/03/04 11:24:12;;;;;;;37.35;19.63;;;4.20;99.90;;;;;;5023332;28;20204;-82
2021/03/04 11:26:38;;;;;;;32.70;18.45;;;4.20;99.90;;;;;;5023843;28;20208;-82
2021/03/04 11:29:05;;;;;;;31.77;17.90;;;4.50;99.90;;;;;;5024802;28;20274;-82
2021/03/04 11:31:33;;;;;;;20.55;10.93;;;4.40;99.90;;;;;;5021336;28;20228;-81
2021/03/04 11:34:00;;;;;;;26.75;14.40;;;;;;;;;;5019846;28;20204;-82
2021/03/04 11:36:26;;;;;;;30.33;17.80;;;4.10;99.90;;;;;;5022222;28;20611;-81
2021/03/04 11:38:52;;;;;;;21.42;12.23;;;4.10;99.90;;;;;;5022698;28;20204;-82
2021/03/04 11:41:18;;;;;;;25.10;14.45;;;4.10;99.90;;;;;;5026374;28;20228;-82
2021/03/04 11:43:44;;;;;;;21.33;10.48;;;4.00;99.90;;;;;;5027543;28;20208;-82
2021/03/04 11:46:11;;;;;;;20.77;10.63;;;4.00;99.90;;;;;;5027836;28;20211;-82
2021/03/04 11:48:38;;;;;;;18.55;10.57;;;3.90;99.90;;;;;;5030665;28;20235;-81
2021/03/04 11:51:05;;;;;;;21.92;13.20;;;3.80;99.90;;;;;;5031539;28;20228;-81
2021/03/04 11:53:31;;;;;;;25.25;13.30;;;3.80;99.90;;;;;;5032047;28;20223;-82
2021/03/04 11:55:57;;;;;;;20.98;13.25;;;3.80;99.90;;;;;;5030119;28;20215;-82
2021/03/04 11:58:23;;;;;;;24.77;14.65;;;3.90;99.90;;;;;;5028354;28;20342;-83
2021/03/04 12:00:49;;;;;;;23.27;13.00;;;3.70;99.90;;;;;;5026796;28;20235;-81
2021/03/04 12:03:15;;;;;;;21.60;10.95;;;3.90;99.90;;;;;;5026970;28;20232;-82
2021/03/04 12:05:42;;;;;;;22.15;14.10;;;3.90;99.90;;;;;;5023539;28;20204;-82
2021/03/04 12:08:09;;;;;;;25.20;13.50;;;3.90;99.90;;;;;;5024073;28;20215;-82
2021/03/04 12:10:35;;;;;;;25.20;15.30;;;3.90;99.90;;;;;;5025283;28;20200;-82
2021/03/04 12:13:01;;;;;;;23.83;12.75;;;3.90;99.90;;;;;;5023802;28;20228;-82
2021/03/04 12:15:27;;;;;;;23.13;12.38;;;3.80;99.90;;;;;;5022743;28;20208;-81
2021/03/04 12:17:53;;;;;;;24.88;13.43;;;4.00;99.90;;;;;;5023936;28;20204;-82
2021/03/04 12:20:19;;;;;;;23.35;13.57;;;4.10;99.90;;;;;;5021817;28;20283;-82
2021/03/04 12:22:46;;;;;;;23.88;14.13;;;4.10;99.90;;;;;;5021688;28;20228;-82
2021/03/04 12:25:13;;;;;;;26.95;14.82;;;4.00;99.90;;;;;;5022439;28;20678;-81
2021/03/04 12:27:39;;;;;;;30.02;15.85;;;4.00;99.90;;;;;;5024473;28;20204;-83
2021/03/04 12:30:06;;;;;;;27.13;15.38;;;3.80;99.90;;;;;;5023825;28;20205;-82
2021/03/04 12:32:33;;;;;;;34.63;15.85;;;3.90;99.90;;;;;;5022522;28;20243;-81
2021/03/04 12:34:59;;;;;;;24.63;13.70;;;4.00;99.90;;;;;;5022740;28;20216;-82
2021/03/04 12:37:25;;;;;;;22.40;13.27;;;4.10;99.90;;;;;;5024281;28;20208;-82